Scroll down
FLIGHT INFORMATION
Air Atlanta Icelandic

ABD666

At Arrival Gate

KPHX
 KPHX
DATE: 2018-08-26
GATE: 3
GATE DEPARTURE: 18:28
TAKEOFF: 18:34
DATE: 2018-08-26
GATE:  -
LANDING: 18:45
GATE ARRIVAL: 18:49
FLIGHT DATA
Crew: 
Speed: 
283 kts
Altitude: 
6,038 ft
Stage Length: 
0.0 nm
Block Time: 
0.4 hrs
Flight Time: 
0.2 hrs
Fuel Used: 
6,589 lb
Cleared Route: 
TRACK DATA
50,000 ft 1,000 kts
AIRCRAFT INFO AND CUMULATIVE STATS
Aircraft Type: 
B744
Registration: 
SELCAL: 
MSN/LN: 
32868 / 1325
Operator: 
Total Flights: 
2
Total Block Time: 
1.4 hrs
Total Flight Time: 
1.1 hrs
Total Fuel Time: 
28,871 lb
DATALINK LOG | Newest first | Current as of: 2020-11-25 11:39:35
LABEL SEQUENCE CONTENT Dn/Up
QD491918:49 63.8▼ Dn
QC453418:45▼ Dn
QB340218:34▼ Dn
QA284518:28 70.4▼ Dn
2U2912KPHX 261751Z 24005KT 10SM FEW065 FEW130 FEW220 SCT250 36/18 A2993 RMK AO2 SLP114 T03560178 10356 20272 50002▲ Up
2S2806KPHX▼ Dn


AIRCRAFT HISTORY
FLIGHT DATE FLIGHT NO. ORIGIN DESTINATION CLEARED ROUTE BLOCK TIME FLIGHT TIME FUEL USED PILOT
2020-10-29ABD1029KPHX KLAX KPHX MESSI ESTWD KLAX1.1 hrs0.9 hrs22,282 lbKevin Hall
2018-08-26ABD666KPHX KPHX 0.4 hrs0.2 hrs6,589 lbKyle Rodgers